createdAt,value
2019-05-13T00:03:54.469Z,13.8
2019-05-13T00:08:54.477Z,13.6
2019-05-13T00:13:54.811Z,13.4
2019-05-13T00:18:54.873Z,13.3
2019-05-13T00:23:54.654Z,13.3
2019-05-13T00:28:54.825Z,13.6
2019-05-13T00:33:54.835Z,13.6
2019-05-13T00:38:54.470Z,13.5
2019-05-13T00:43:54.907Z,13.6
2019-05-13T00:48:54.387Z,14.1
2019-05-13T00:53:54.712Z,13.8
2019-05-13T00:58:54.261Z,13.6
2019-05-13T01:03:54.630Z,13.6
2019-05-13T01:08:56.716Z,13.5
2019-05-13T01:13:53.890Z,13.9
2019-05-13T01:18:55.158Z,13.9
2019-05-13T01:23:54.476Z,13.9
2019-05-13T01:28:53.994Z,14.1
2019-05-13T01:33:54.964Z,13.9
2019-05-13T01:38:54.208Z,14.1
2019-05-13T01:43:54.612Z,13.9
2019-05-13T01:48:54.441Z,14.2
2019-05-13T01:53:54.472Z,13.8
2019-05-13T01:58:55.327Z,13.9
2019-05-13T02:03:54.697Z,14
2019-05-13T02:08:54.669Z,13.9
2019-05-13T02:13:55.098Z,13.7
2019-05-13T02:19:00.025Z,13.7
2019-05-13T02:23:54.756Z,13.6
2019-05-13T02:28:54.235Z,13.5
2019-05-13T02:33:54.963Z,13.3
2019-05-13T02:38:55.258Z,13.2
2019-05-13T02:44:03.661Z,13.3
2019-05-13T02:48:54.749Z,13.4
2019-05-13T02:53:58.736Z,13.5
2019-05-13T02:58:59.056Z,13.4
2019-05-13T03:04:02.721Z,13.6
2019-05-13T03:09:06.122Z,13.7
2019-05-13T03:13:55.154Z,14
2019-05-13T03:18:58.707Z,14.4
2019-05-13T03:23:58.976Z,13.9
2019-05-13T03:28:58.771Z,14
2019-05-13T03:34:15.456Z,14.3
2019-05-13T03:39:32.858Z,14.3
2019-05-13T03:44:02.218Z,14.5
2019-05-13T03:48:56.907Z,14.8
2019-05-13T03:53:56.290Z,15.3
2019-05-13T03:58:56.065Z,14.8
2019-05-13T04:03:59.276Z,14.9
2019-05-13T04:09:16.937Z,15.2
2019-05-13T04:13:58.873Z,15.5
2019-05-13T04:18:55.129Z,16
2019-05-13T04:23:55.403Z,16.3
2019-05-13T04:28:58.954Z,16.1
2019-05-13T04:34:02.165Z,16.7
2019-05-13T04:39:02.856Z,17.4
2019-05-13T04:44:02.506Z,17.2
2019-05-13T04:49:02.274Z,17.5
2019-05-13T04:54:03.285Z,17.2
2019-05-13T04:58:58.897Z,17.2
2019-05-13T05:04:30.330Z,17.3
2019-05-13T05:09:40.148Z,17.2
2019-05-13T05:20:12.211Z,17.5
2019-05-13T05:25:16.704Z,17.6
2019-05-13T05:29:24.477Z,17.7
2019-05-13T05:39:24.841Z,18
2019-05-13T05:44:02.301Z,18
2019-05-13T05:49:02.059Z,19
2019-05-13T05:53:56.258Z,18.6
2019-05-13T05:58:58.920Z,18.9
2019-05-13T06:03:57.255Z,19.2
2019-05-13T06:08:53.942Z,19.5
2019-05-13T06:14:02.247Z,20
2019-05-13T06:18:53.972Z,19.3
2019-05-13T06:23:54.358Z,20.1
2019-05-13T06:28:53.942Z,20.2
2019-05-13T06:33:54.721Z,20.4
2019-05-13T06:38:57.671Z,19.8
2019-05-13T06:43:54.349Z,20.8
2019-05-13T06:48:53.978Z,20.5
2019-05-13T06:53:53.917Z,20
2019-05-13T06:58:58.404Z,21.1
2019-05-13T07:03:54.368Z,21.5
2019-05-13T07:08:54.282Z,21.3
2019-05-13T07:13:54.721Z,21.2
2019-05-13T07:18:54.025Z,21.5
2019-05-13T07:24:02.158Z,21.1
2019-05-13T07:28:59.019Z,21.9
2019-05-13T07:33:55.084Z,21.9
2019-05-13T07:38:54.184Z,21.9
2019-05-13T07:43:55.193Z,22
2019-05-13T07:48:54.031Z,23
2019-05-13T07:53:55.038Z,23
2019-05-13T07:58:54.346Z,21.8
2019-05-13T08:03:54.651Z,22.5
2019-05-13T08:08:54.667Z,22.4
2019-05-13T08:13:57.909Z,22.3
2019-05-13T08:18:58.646Z,23
2019-05-13T08:23:58.678Z,22.8
2019-05-13T08:29:17.807Z,23.3
2019-05-13T08:33:54.930Z,22.6
2019-05-13T08:38:58.271Z,22
2019-05-13T08:43:54.378Z,23
2019-05-13T08:48:58.081Z,23.2
2019-05-13T08:53:54.958Z,23.1
2019-05-13T08:58:53.797Z,23.4
2019-05-13T09:03:54.263Z,23.1
2019-05-13T09:09:06.488Z,23.8
2019-05-13T09:14:02.367Z,23.4
2019-05-13T09:19:03.639Z,23.5
2019-05-13T09:24:02.261Z,24.4
2019-05-13T09:29:01.400Z,23.5
2019-05-13T09:34:02.361Z,24.1
2019-05-13T09:39:02.027Z,24
2019-05-13T09:44:02.223Z,24.7
2019-05-13T09:49:23.592Z,25.7
2019-05-13T09:54:02.246Z,25
2019-05-13T09:59:02.030Z,24.5
2019-05-13T10:04:13.504Z,25.2
2019-05-13T10:09:02.174Z,26.4
2019-05-13T10:14:02.134Z,25.8
2019-05-13T10:19:02.311Z,25.2
2019-05-13T10:24:05.173Z,24.9
2019-05-13T10:28:59.660Z,26.1
2019-05-13T10:34:02.419Z,27.3
2019-05-13T10:39:02.836Z,27.2
2019-05-13T10:44:02.911Z,26.1
2019-05-13T10:49:01.870Z,26.2
2019-05-13T10:54:05.991Z,27
2019-05-13T10:59:02.993Z,26.2
2019-05-13T11:04:02.880Z,25.9
2019-05-13T11:09:02.580Z,25.4
2019-05-13T11:14:28.163Z,24.7
2019-05-13T11:19:02.939Z,23.9
2019-05-13T11:24:03.266Z,26
2019-05-13T11:29:02.841Z,27.3
2019-05-13T11:34:02.361Z,27.9
2019-05-13T11:39:04.502Z,29.3
2019-05-13T11:44:31.871Z,29.3
2019-05-13T11:49:02.694Z,28.4
2019-05-13T11:54:02.378Z,25.8
2019-05-13T11:59:04.278Z,25.1
2019-05-13T12:04:02.713Z,25.9
2019-05-13T12:09:12.964Z,26.5
2019-05-13T12:14:05.219Z,27.4
2019-05-13T12:19:03.677Z,26.3
2019-05-13T12:24:10.287Z,26.1
2019-05-13T12:29:04.237Z,25.5
2019-05-13T12:34:03.712Z,25.9
2019-05-13T12:39:05.064Z,24.5
2019-05-13T12:44:04.346Z,25
2019-05-13T12:49:03.226Z,25.1
2019-05-13T12:54:03.927Z,25.4
2019-05-13T12:59:03.057Z,23.1
2019-05-13T13:04:02.188Z,24.2
2019-05-13T13:09:05.379Z,24.6
2019-05-13T13:14:34.817Z,24.6
2019-05-13T13:19:04.995Z,24.4
2019-05-13T13:24:04.339Z,24.1
2019-05-13T13:29:05.973Z,24.4
2019-05-13T13:34:18.240Z,24.3
2019-05-13T13:39:13.661Z,24.1
2019-05-13T13:44:05.344Z,24.3
2019-05-13T13:49:05.896Z,24.5
2019-05-13T13:54:06.717Z,25.4
2019-05-13T13:59:04.304Z,24
2019-05-13T14:07:07.042Z,24.5
2019-05-13T14:09:05.916Z,24.5
2019-05-13T14:14:02.354Z,23.9
2019-05-13T14:19:02.904Z,24.1
2019-05-13T14:24:09.053Z,24.2
2019-05-13T14:29:12.293Z,24.8
2019-05-13T14:34:11.421Z,24.4
2019-05-13T14:39:11.755Z,24.5
2019-05-13T14:44:06.440Z,24.7
2019-05-13T14:49:04.295Z,24.5
2019-05-13T14:54:09.046Z,24.7
2019-05-13T14:59:11.376Z,23.7
2019-05-13T15:04:09.078Z,24.1
2019-05-13T15:09:08.659Z,23.6
2019-05-13T15:14:08.773Z,23.7
2019-05-13T15:19:07.912Z,24
2019-05-13T15:24:08.811Z,23.7
2019-05-13T15:29:13.052Z,23.5
2019-05-13T15:34:08.962Z,23.4
2019-05-13T15:39:08.573Z,22.9
2019-05-13T15:44:11.375Z,23.2
2019-05-13T15:49:18.572Z,23.1
2019-05-13T15:59:12.254Z,22.9
2019-05-13T16:04:09.017Z,22.6
2019-05-13T16:09:11.585Z,22.6
2019-05-13T16:14:08.491Z,22.6
2019-05-13T16:19:05.961Z,22.6
2019-05-13T16:24:11.905Z,22.5
2019-05-13T16:29:12.424Z,22.2
2019-05-13T16:34:10.123Z,22
2019-05-13T16:39:12.276Z,22
2019-05-13T16:44:07.778Z,22
2019-05-13T16:49:11.799Z,21.9
2019-05-13T16:54:07.747Z,21.6
2019-05-13T16:59:09.999Z,21.7
2019-05-13T17:04:12.324Z,21.6
2019-05-13T17:09:11.462Z,21.5
2019-05-13T17:14:09.380Z,21.2
2019-05-13T17:19:11.848Z,21.1
2019-05-13T17:24:12.288Z,20.9
2019-05-13T17:29:11.943Z,19.9
2019-05-13T17:34:12.014Z,19.7
2019-05-13T17:39:12.433Z,19.2
2019-05-13T17:44:08.811Z,18.8
2019-05-13T17:49:11.570Z,18.6
2019-05-13T17:54:11.781Z,18.6
2019-05-13T17:59:07.728Z,18.5
2019-05-13T18:04:08.793Z,18.5
2019-05-13T18:09:11.853Z,18.4
2019-05-13T18:14:11.393Z,18.4
2019-05-13T18:19:07.699Z,18.2
2019-05-13T18:24:11.807Z,18.2
2019-05-13T18:29:12.174Z,17.8
2019-05-13T18:34:12.019Z,17.4
2019-05-13T18:39:14.106Z,17.1
2019-05-13T18:44:12.366Z,17.1
2019-05-13T18:49:14.723Z,17.1
2019-05-13T18:54:11.996Z,16.9
2019-05-13T18:59:12.632Z,17
2019-05-13T19:04:11.407Z,17
2019-05-13T19:09:11.180Z,16.8
2019-05-13T19:14:11.958Z,16.8
2019-05-13T19:19:28.483Z,16.8
2019-05-13T19:24:13.119Z,16.9
2019-05-13T19:29:11.471Z,17
2019-05-13T19:34:12.606Z,17.4
2019-05-13T19:39:11.470Z,17.1
2019-05-13T19:44:16.080Z,17.4
2019-05-13T19:49:29.539Z,16.7
2019-05-13T19:54:17.997Z,16.5
2019-05-13T19:59:18.649Z,16.6
2019-05-13T20:04:16.805Z,16.3
2019-05-13T20:09:16.011Z,16.2
2019-05-13T20:14:18.275Z,16
2019-05-13T20:19:18.016Z,16.4
2019-05-13T20:24:14.187Z,16.2
2019-05-13T20:29:20.165Z,16.2
2019-05-13T20:34:18.229Z,16.4
2019-05-13T20:39:17.897Z,16.5
2019-05-13T20:44:16.003Z,16.4
2019-05-13T20:49:18.321Z,16.4
2019-05-13T20:54:17.766Z,16.5
2019-05-13T20:59:17.036Z,16.6
2019-05-13T21:04:18.662Z,16.7
2019-05-13T21:09:23.559Z,16.6
2019-05-13T21:14:17.031Z,16.6
2019-05-13T21:19:18.776Z,16.8
2019-05-13T21:24:16.962Z,16.7
2019-05-13T21:29:21.475Z,16.8
2019-05-13T21:34:18.268Z,16.7
2019-05-13T21:39:18.808Z,16.8
2019-05-13T21:44:18.331Z,16.8
2019-05-13T21:49:18.332Z,17
2019-05-13T21:54:22.244Z,17
2019-05-13T21:59:23.195Z,16.9
2019-05-13T22:04:22.813Z,16.6
2019-05-13T22:09:22.176Z,16.6
2019-05-13T22:14:23.748Z,16.6
2019-05-13T22:19:22.782Z,16.6
2019-05-13T22:24:22.201Z,16.5
2019-05-13T22:29:23.139Z,16.7
2019-05-13T22:34:22.567Z,16.6
2019-05-13T22:39:22.084Z,17
2019-05-13T22:44:23.917Z,17.2
2019-05-13T22:49:22.163Z,17.2
2019-05-13T22:54:22.329Z,17.4
2019-05-13T22:59:22.645Z,17.3
2019-05-13T23:04:21.966Z,17
2019-05-13T23:09:22.968Z,16.9
2019-05-13T23:14:28.284Z,16.7
2019-05-13T23:19:23.495Z,16.5
2019-05-13T23:24:21.969Z,16.7
2019-05-13T23:29:21.469Z,16.4
2019-05-13T23:34:22.499Z,16.1
2019-05-13T23:39:22.094Z,16
2019-05-13T23:44:42.667Z,15.9
2019-05-13T23:49:24.337Z,15.9
2019-05-13T23:54:22.701Z,16
2019-05-13T23:59:21.969Z,16
